Time;durP1;ratioP1;P1;durP2;ratioP2;P2;SDS_P1;SDS_P2;PMS_P1;PMS_P2;Temp;Humidity;BMP_temperature;BMP_pressure;BME280_temperature;BME280_humidity;BME280_pressure;Samples;Min_cycle;Max_cycle;Signal;HPM_P1;HPM_P2
2021/07/05 00:00:20;;;;;;;1999.90;999.90;;;;;;;16.64;46.85;100397.69;5002556;27;98111;-72
2021/07/05 00:02:47;;;;;;;1999.90;999.90;;;;;;;16.61;46.72;100397.75;4987138;27;100703;-71
2021/07/05 00:05:16;;;;;;;1999.90;999.90;;;;;;;16.59;46.96;100407.59;4999660;27;98111;-71
2021/07/05 00:07:46;;;;;;;1999.90;999.90;;;;;;;16.58;46.75;100400.47;5003914;27;98995;-71
2021/07/05 00:10:16;;;;;;;1999.90;999.90;;;;;;;16.57;47.07;100404.94;5005688;27;98116;-72
2021/07/05 00:12:46;;;;;;;1999.90;999.90;;;;;;;16.58;46.84;100405.84;5003537;27;98439;-72
2021/07/05 00:15:19;;;;;;;1999.90;999.90;;;;;;;16.59;47.07;100407.59;5005463;27;98156;-71
2021/07/05 00:17:49;;;;;;;1999.90;999.90;;;;;;;16.59;46.69;100407.59;5002367;27;97299;-71
2021/07/05 00:20:16;;;;;;;1999.90;999.90;;;;;;;16.60;46.80;100395.94;5001794;27;99559;-72
2021/07/05 00:22:44;;;;;;;1999.90;999.90;;;;;;;16.65;46.77;100391.44;4993280;27;99244;-71
2021/07/05 00:25:13;;;;;;;1999.90;999.90;;;;;;;16.62;46.51;100400.41;5001630;27;97227;-71
2021/07/05 00:27:41;;;;;;;1999.90;999.90;;;;;;;16.60;46.75;100398.63;4999454;27;97289;-72
2021/07/05 00:30:09;;;;;;;1999.90;999.90;;;;;;;16.57;46.80;100393.28;5014373;27;97640;-72
2021/07/05 00:32:37;;;;;;;1999.90;999.90;;;;;;;16.52;46.98;100390.66;5007657;27;98975;-72
2021/07/05 00:35:08;;;;;;;1999.90;999.90;;;;;;;16.54;46.75;100401.41;4996669;27;97747;-71
2021/07/05 00:37:35;;;;;;;1999.90;999.90;;;;;;;16.58;46.49;100395.09;5005036;27;97912;-72
2021/07/05 00:40:05;;;;;;;1999.90;999.90;;;;;;;16.60;46.35;100396.84;5004755;27;97921;-71
2021/07/05 00:42:33;;;;;;;1999.90;999.90;;;;;;;16.60;46.28;100398.63;5005245;27;98621;-71
2021/07/05 00:45:01;;;;;;;1999.90;999.90;;;;;;;16.52;46.43;100397.81;5005203;27;97747;-70
2021/07/05 00:47:29;;;;;;;1999.90;999.90;;;;;;;16.49;46.16;100404.09;5004397;27;97317;-70
2021/07/05 00:49:56;;;;;;;1999.90;999.90;;;;;;;16.45;46.30;100401.47;5004758;27;97626;-72
2021/07/05 00:52:26;;;;;;;1999.90;999.90;;;;;;;16.51;46.25;100404.09;4993778;28;97750;-71
2021/07/05 00:54:53;;;;;;;1999.90;999.90;;;;;;;16.54;46.59;100402.25;5016694;27;97860;-72
2021/07/05 00:57:23;;;;;;;1999.90;999.90;;;;;;;16.53;46.30;100408.56;5032092;27;97709;-70
2021/07/05 00:59:52;;;;;;;1999.90;999.90;;;;;;;16.57;46.20;100414.78;5010535;27;100340;-71
2021/07/05 01:02:20;;;;;;;1999.90;999.90;;;;;;;16.61;46.29;100421.91;5015947;27;100967;-71
2021/07/05 01:04:49;;;;;;;1999.90;999.90;;;;;;;16.65;46.24;100421.84;5008790;27;97411;-71
2021/07/05 01:07:17;;;;;;;1999.90;999.90;;;;;;;16.66;46.24;100409.31;5002402;27;97464;-71
2021/07/05 01:09:46;;;;;;;1999.90;999.90;;;;;;;16.67;46.25;100403.06;5016572;27;100264;-71
2021/07/05 01:12:14;;;;;;;1999.90;999.90;;;;;;;16.65;46.39;100404.88;5011405;27;98576;-72
2021/07/05 01:14:42;;;;;;;1999.90;999.90;;;;;;;16.64;46.24;100411.13;5004517;27;98084;-71
2021/07/05 01:17:13;;;;;;;1999.90;999.90;;;;;;;16.62;46.33;100418.31;5003808;27;97647;-72
2021/07/05 01:19:43;;;;;;;1999.90;999.90;;;;;;;16.64;46.16;100413.81;5002647;27;100869;-72
2021/07/05 01:22:13;;;;;;;1999.90;999.90;;;;;;;16.66;46.44;100409.31;5002975;27;99592;-71
2021/07/05 01:24:42;;;;;;;1999.90;999.90;;;;;;;16.68;46.34;100404.84;5002643;27;97293;-72
2021/07/05 01:27:10;;;;;;;1999.90;999.90;;;;;;;16.69;46.02;100410.19;4998520;28;97333;-70
2021/07/05 01:29:39;;;;;;;1999.90;999.90;;;;;;;16.69;46.14;100399.44;5009414;27;98885;-71
2021/07/05 01:32:08;;;;;;;1999.90;999.90;;;;;;;16.66;46.26;100406.63;5014401;27;100485;-71
2021/07/05 01:34:36;;;;;;;1999.90;999.90;;;;;;;16.63;46.20;100412.06;5002896;27;97821;-71
2021/07/05 01:37:04;;;;;;;1999.90;999.90;;;;;;;16.66;46.12;100412.00;5001076;27;97693;-71
2021/07/05 01:39:33;;;;;;;1999.90;999.90;;;;;;;16.67;46.34;100411.13;5003952;27;99523;-70
2021/07/05 01:42:01;;;;;;;1999.90;999.90;;;;;;;16.77;46.14;100415.53;5004869;27;99571;-71
2021/07/05 01:44:29;;;;;;;1999.90;999.90;;;;;;;16.70;45.97;100411.09;5005887;27;97280;-71
2021/07/05 01:46:56;;;;;;;1999.90;999.90;;;;;;;16.68;46.25;100407.50;4997050;28;97157;-70
2021/07/05 01:49:24;;;;;;;1999.90;999.90;;;;;;;16.65;46.30;100412.94;5013249;27;99820;-71
2021/07/05 01:51:52;;;;;;;1999.90;999.90;;;;;;;16.63;46.30;100415.63;5032687;27;99040;-71
2021/07/05 01:54:20;;;;;;;1999.90;999.90;;;;;;;16.58;46.57;100406.72;4999823;28;97086;-72
2021/07/05 01:56:50;;;;;;;1999.90;999.90;;;;;;;16.59;46.58;100407.59;5002620;27;97548;-71
2021/07/05 01:59:35;;;;;;;1999.90;999.90;;;;;;;16.63;46.64;100412.06;5004707;27;99542;-72
2021/07/05 02:02:05;;;;;;;1999.90;999.90;;;;;;;16.65;46.65;100408.41;5003250;27;99275;-71
2021/07/05 02:04:48;;;;;;;1999.90;999.90;;;;;;;16.68;46.89;100413.78;5001902;27;97605;-71
2021/07/05 02:07:16;;;;;;;1999.90;999.90;;;;;;;16.69;46.82;100414.69;4998727;27;98341;-72
2021/07/05 02:09:45;;;;;;;1999.90;999.90;;;;;;;16.69;46.64;100422.75;5001503;27;100165;-71
2021/07/05 02:12:15;;;;;;;1999.90;999.90;;;;;;;16.71;46.65;100416.47;5004271;27;100730;-72
2021/07/05 02:14:44;;;;;;;1999.90;999.90;;;;;;;16.70;46.84;100427.22;5002442;27;98004;-73
2021/07/05 02:17:12;;;;;;;1999.90;999.90;;;;;;;16.67;46.79;100424.56;4986274;28;97184;-71
2021/07/05 02:19:40;;;;;;;1999.90;999.90;;;;;;;16.62;46.70;100429.97;5002239;27;97821;-71
2021/07/05 02:22:09;;;;;;;1999.90;999.90;;;;;;;16.61;46.55;100432.66;5003272;27;98767;-72
2021/07/05 02:24:37;;;;;;;1999.90;999.90;;;;;;;16.57;46.79;100434.50;5000708;27;97494;-71
2021/07/05 02:27:05;;;;;;;1999.90;999.90;;;;;;;16.57;46.58;100438.97;5011007;27;98437;-71
2021/07/05 02:29:35;;;;;;;1999.90;999.90;;;;;;;16.53;46.88;100440.78;5004551;27;100538;-72
2021/07/05 02:32:03;;;;;;;1999.90;999.90;;;;;;;16.47;46.87;100434.59;5001722;27;100898;-72
2021/07/05 02:34:31;;;;;;;1999.90;999.90;;;;;;;16.44;47.02;100434.59;5000711;27;97400;-71
2021/07/05 02:36:59;;;;;;;1999.90;999.90;;;;;;;16.45;47.33;100437.25;5000974;27;97434;-72
2021/07/05 02:39:27;;;;;;;1999.90;999.90;;;;;;;16.45;47.13;100431.88;4999494;27;99736;-71
2021/07/05 02:41:55;;;;;;;1999.90;999.90;;;;;;;16.44;47.22;100429.22;5001936;27;99069;-71
2021/07/05 02:44:22;;;;;;;1999.90;999.90;;;;;;;16.42;47.13;100434.63;5002962;27;97775;-71
2021/07/05 02:46:52;;;;;;;1999.90;999.90;;;;;;;16.42;46.93;100433.72;5000566;27;97590;-70
2021/07/05 02:49:19;;;;;;;1999.90;999.90;;;;;;;16.42;47.20;100442.66;5000774;27;97821;-71
2021/07/05 02:51:47;;;;;;;1999.90;999.90;;;;;;;16.44;46.86;100435.50;5001976;27;98805;-71
2021/07/05 02:54:15;;;;;;;1999.90;999.90;;;;;;;16.44;46.61;100440.88;4987363;28;97480;-71
2021/07/05 02:56:43;;;;;;;1999.90;999.90;;;;;;;16.39;47.09;100440.03;5000968;27;98131;-71
2021/07/05 02:59:10;;;;;;;1999.90;999.90;;;;;;;16.40;47.08;100449.84;5002938;27;99290;-72
2021/07/05 03:01:39;;;;;;;1999.90;999.90;;;;;;;16.40;46.86;100446.25;5001213;27;98833;-71
2021/07/05 03:04:08;;;;;;;1999.90;999.90;;;;;;;16.39;46.97;100455.22;5004658;27;97056;-71
2021/07/05 03:06:35;;;;;;;1999.90;999.90;;;;;;;16.37;46.87;100460.63;5031517;27;97829;-71
2021/07/05 03:09:03;;;;;;;1999.90;999.90;;;;;;;16.39;46.68;100455.22;5002371;27;99763;-71
2021/07/05 03:11:31;;;;;;;1999.90;999.90;;;;;;;16.35;47.04;100456.16;5005947;27;98874;-70
2021/07/05 03:14:00;;;;;;;1999.90;999.90;;;;;;;16.33;46.92;100458.84;5002956;27;98243;-70
2021/07/05 03:16:30;;;;;;;1999.90;999.90;;;;;;;16.31;47.02;100457.06;5004512;27;97247;-71
2021/07/05 03:18:57;;;;;;;1999.90;999.90;;;;;;;16.30;46.86;100458.91;4999644;27;99432;-71
2021/07/05 03:21:26;;;;;;;1999.90;999.90;;;;;;;16.27;46.90;100458.91;5002006;27;97574;-71
2021/07/05 03:23:55;;;;;;;1999.90;999.90;;;;;;;16.22;47.42;100460.72;5001331;27;98321;-71
2021/07/05 03:26:23;;;;;;;1999.90;999.90;;;;;;;16.18;47.58;100458.09;4999112;27;97636;-72
2021/07/05 03:28:51;;;;;;;1999.90;999.90;;;;;;;16.18;47.97;100458.09;5005971;27;97780;-72
2021/07/05 03:31:18;;;;;;;1999.90;999.90;;;;;;;16.15;47.94;100455.41;5005341;27;99747;-70
2021/07/05 03:33:48;;;;;;;1999.90;999.90;;;;;;;16.10;48.48;100450.94;5007737;27;96816;-71
2021/07/05 03:36:16;;;;;;;1999.90;999.90;;;;;;;16.05;48.50;100458.16;5001323;27;97468;-70
2021/07/05 03:38:45;;;;;;;1999.90;999.90;;;;;;;16.01;49.05;100455.50;4989206;27;99192;-70
2021/07/05 03:41:13;;;;;;;1999.90;999.90;;;;;;;15.99;49.14;100463.56;5005981;27;97128;-71
2021/07/05 03:43:41;;;;;;;1999.90;999.90;;;;;;;15.99;49.16;100462.66;5002552;27;97800;-71
2021/07/05 03:46:09;;;;;;;1999.90;999.90;;;;;;;16.02;49.42;100462.66;5001086;27;97299;-71
2021/07/05 03:48:37;;;;;;;1999.90;999.90;;;;;;;16.03;49.33;100461.78;5000659;27;98920;-71
2021/07/05 03:51:05;;;;;;;1999.90;999.90;;;;;;;16.02;49.39;100463.56;4999869;27;97859;-71
2021/07/05 03:53:32;;;;;;;1999.90;999.90;;;;;;;16.04;49.44;100466.22;5003343;27;99288;-71
2021/07/05 03:56:03;;;;;;;1999.90;999.90;;;;;;;16.04;49.32;100460.84;5010841;27;96983;-70
2021/07/05 03:58:31;;;;;;;1999.90;999.90;;;;;;;16.02;49.43;100471.59;4999813;27;100028;-72
2021/07/05 04:01:00;;;;;;;1999.90;999.90;;;;;;;16.00;49.58;100481.44;5000909;27;98922;-71
2021/07/05 04:03:28;;;;;;;1999.90;999.90;;;;;;;16.00;49.40;100486.81;5004540;27;97020;-71
2021/07/05 04:05:58;;;;;;;1999.90;999.90;;;;;;;15.97;49.71;100483.22;5007329;27;97578;-70
2021/07/05 04:08:28;;;;;;;1999.90;999.90;;;;;;;15.92;49.61;100493.09;5001569;27;98169;-71
2021/07/05 04:10:56;;;;;;;1999.90;999.90;;;;;;;15.91;50.05;100492.22;5005931;27;100494;-71
2021/07/05 04:13:28;;;;;;;1999.90;999.90;;;;;;;15.91;50.16;100500.25;5008812;27;97502;-71
2021/07/05 04:15:56;;;;;;;1999.90;999.90;;;;;;;15.89;50.56;100494.00;5004483;27;97890;-71
2021/07/05 04:18:24;;;;;;;1999.90;999.90;;;;;;;15.88;50.55;100496.69;4996423;27;99244;-71
2021/07/05 04:20:52;;;;;;;1999.90;999.90;;;;;;;15.85;50.67;100502.97;5005067;27;98161;-72
2021/07/05 04:23:24;;;;;;;1999.90;999.90;;;;;;;15.81;50.71;100495.81;5006025;27;97908;-72
2021/07/05 04:25:51;;;;;;;1999.90;999.90;;;;;;;15.78;50.75;100495.84;5006766;27;96730;-71
2021/07/05 04:28:20;;;;;;;1999.90;999.90;;;;;;;15.77;50.96;100488.72;5010641;27;100514;-71
2021/07/05 04:30:49;;;;;;;1999.90;999.90;;;;;;;15.77;50.92;100506.59;5014972;27;99805;-70
2021/07/05 04:33:17;;;;;;;1999.90;999.90;;;;;;;15.75;50.65;100494.97;5007840;27;97587;-70
2021/07/05 04:35:45;;;;;;;1999.90;999.90;;;;;;;15.74;50.98;100498.56;5010881;27;97750;-71
2021/07/05 04:38:13;;;;;;;1999.90;999.90;;;;;;;15.61;51.10;100503.06;5007680;27;98202;-71
2021/07/05 04:40:42;;;;;;;1999.90;999.90;;;;;;;15.59;51.67;100502.22;5008531;27;97574;-71
2021/07/05 04:43:11;;;;;;;1999.90;999.90;;;;;;;15.57;51.37;100495.94;5004269;27;97390;-70
2021/07/05 04:45:39;;;;;;;1999.90;999.90;;;;;;;15.57;51.70;100487.91;5002124;27;98101;-71
2021/07/05 04:48:08;;;;;;;1999.90;999.90;;;;;;;15.54;51.32;100490.56;5005282;27;100005;-71
2021/07/05 04:50:37;;;;;;;1999.90;999.90;;;;;;;15.53;51.59;100496.84;5007496;27;99204;-72
2021/07/05 04:53:05;;;;;;;1999.90;999.90;;;;;;;15.49;51.45;100492.41;5005494;27;97685;-72
2021/07/05 04:55:33;;;;;;;1999.90;999.90;;;;;;;15.49;51.60;100487.03;5008435;27;98176;-72
2021/07/05 04:58:01;;;;;;;1999.90;999.90;;;;;;;15.49;51.65;100492.41;5002658;27;97701;-72
2021/07/05 05:00:31;;;;;;;1999.90;999.90;;;;;;;15.50;51.80;100488.78;5004179;27;97951;-71
2021/07/05 05:02:59;;;;;;;1999.90;999.90;;;;;;;15.53;51.85;100488.81;5009105;27;97421;-72
2021/07/05 05:05:29;;;;;;;1999.90;999.90;;;;;;;15.55;51.96;100489.69;5008462;27;97752;-71
2021/07/05 05:07:57;;;;;;;1999.90;999.90;;;;;;;15.57;51.75;100487.91;5004705;27;97820;-71
2021/07/05 05:10:25;;;;;;;1999.90;999.90;;;;;;;15.61;51.75;100489.66;4986579;28;99320;-71
2021/07/05 05:12:53;;;;;;;1999.90;999.90;;;;;;;15.64;51.96;100486.97;5007346;27;97856;-71
2021/07/05 05:15:21;;;;;;;1999.90;999.90;;;;;;;15.63;51.60;100479.81;5003293;27;98188;-72
2021/07/05 05:17:50;;;;;;;1999.90;999.90;;;;;;;15.66;51.33;100479.81;5007683;27;98568;-71
2021/07/05 05:20:18;;;;;;;1999.90;999.90;;;;;;;15.68;51.26;100478.03;5006945;27;98756;-71
2021/07/05 05:22:48;;;;;;;1999.90;999.90;;;;;;;15.70;51.19;100486.94;5003933;27;97203;-71
2021/07/05 05:25:17;;;;;;;1999.90;999.90;;;;;;;15.71;51.11;100483.38;5006988;27;97851;-70
2021/07/05 05:27:45;;;;;;;1999.90;999.90;;;;;;;15.70;50.95;100483.38;5028417;27;100698;-71
2021/07/05 05:30:15;;;;;;;1999.90;999.90;;;;;;;15.72;50.86;100470.84;4999229;27;99501;-71
2021/07/05 05:32:44;;;;;;;1999.90;999.90;;;;;;;15.69;50.88;100479.78;5001094;27;97302;-70
2021/07/05 05:35:15;;;;;;;1999.90;999.90;;;;;;;15.74;50.89;100486.03;5000065;27;97420;-71
2021/07/05 05:37:43;;;;;;;1999.90;999.90;;;;;;;15.70;50.78;100492.28;5013743;27;101066;-72
2021/07/05 05:40:13;;;;;;;1999.90;999.90;;;;;;;15.66;50.54;100501.28;4992334;28;99252;-71
2021/07/05 05:42:40;;;;;;;1999.90;999.90;;;;;;;15.61;50.74;100497.69;5002855;27;97432;-71
2021/07/05 05:45:10;;;;;;;1999.90;999.90;;;;;;;15.61;50.89;100500.38;4996914;27;97946;-71
2021/07/05 05:47:38;;;;;;;1999.90;999.90;;;;;;;15.61;50.54;100503.06;5001264;27;97967;-68
2021/07/05 05:50:08;;;;;;;1999.90;999.90;;;;;;;15.58;50.73;100503.09;5004679;27;97571;-69
2021/07/05 05:52:36;;;;;;;1999.90;999.90;;;;;;;15.58;50.32;100510.22;4989991;27;96923;-69
2021/07/05 05:55:04;;;;;;;1999.90;999.90;;;;;;;15.59;50.39;100510.25;5002815;27;96913;-69
2021/07/05 05:57:36;;;;;;;1999.90;999.90;;;;;;;15.63;50.53;100506.63;5006240;27;98780;-69
2021/07/05 06:00:08;;;;;;;1999.90;999.90;;;;;;;15.62;50.21;100514.69;5002985;27;98856;-69
2021/07/05 06:02:36;;;;;;;1999.90;999.90;;;;;;;15.62;49.94;100509.31;5005275;27;97623;-68
2021/07/05 06:05:04;;;;;;;1999.90;999.90;;;;;;;15.61;50.24;100512.91;5007782;27;96923;-69
2021/07/05 06:07:32;;;;;;;1999.90;999.90;;;;;;;15.62;50.15;100518.28;5005209;27;98939;-69
2021/07/05 06:10:00;;;;;;;1999.90;999.90;;;;;;;15.61;49.54;100507.56;4996051;27;97927;-69
2021/07/05 06:12:27;;;;;;;1999.90;999.90;;;;;;;15.60;49.79;100512.03;5001686;27;96836;-69
2021/07/05 06:14:56;;;;;;;1999.90;999.90;;;;;;;15.60;49.65;100500.38;5003857;27;97167;-69
2021/07/05 06:17:24;;;;;;;1999.90;999.90;;;;;;;15.61;49.60;100505.75;5031698;27;97949;-68
2021/07/05 06:19:52;;;;;;;1999.90;999.90;;;;;;;15.64;49.70;100502.16;5004598;27;97908;-69
2021/07/05 06:22:27;;;;;;;1999.90;999.90;;;;;;;15.64;49.47;100503.06;5004352;27;97231;-69
2021/07/05 06:24:54;;;;;;;1999.90;999.90;;;;;;;15.67;49.55;100508.41;5002246;27;98117;-69
2021/07/05 06:27:22;;;;;;;1999.90;999.90;;;;;;;15.32;50.19;100498.72;5003166;27;99307;-69
2021/07/05 06:29:50;;;;;;;1999.90;999.90;;;;;;;15.17;50.45;100495.13;4989290;27;100968;-69
2021/07/05 06:32:19;;;;;;;1999.90;999.90;;;;;;;15.08;50.77;100494.28;5003681;27;97633;-69
2021/07/05 06:34:47;;;;;;;1999.90;999.90;;;;;;;15.00;50.96;100486.25;5008638;27;97634;-69
2021/07/05 06:37:15;;;;;;;1999.90;999.90;;;;;;;14.94;50.91;100491.59;5000402;27;99096;-69
2021/07/05 06:39:43;;;;;;;1999.90;999.90;;;;;;;14.90;51.08;100494.31;5003101;27;100401;-69
2021/07/05 06:42:10;;;;;;;1999.90;999.90;;;;;;;14.85;51.12;100496.06;5003462;27;97790;-70
2021/07/05 06:44:38;;;;;;;1999.90;999.90;;;;;;;14.78;51.21;100503.22;5008832;27;97330;-70
2021/07/05 06:47:06;;;;;;;1999.90;999.90;;;;;;;14.76;51.00;100501.44;5003450;27;98041;-71
2021/07/05 06:49:35;;;;;;;1999.90;999.90;;;;;;;14.75;51.08;100488.94;5003809;27;97660;-70
2021/07/05 06:52:04;;;;;;;1999.90;999.90;;;;;;;14.76;51.13;100496.06;5001790;27;97211;-69
2021/07/05 06:54:32;;;;;;;1999.90;999.90;;;;;;;14.79;51.20;100496.97;5003247;27;97318;-70
2021/07/05 06:57:00;;;;;;;1999.90;999.90;;;;;;;14.80;51.12;100493.41;5002213;27;98018;-71
2021/07/05 06:59:28;;;;;;;1999.90;999.90;;;;;;;14.82;50.76;100496.09;5006336;27;99713;-71
2021/07/05 07:01:55;;;;;;;1999.90;999.90;;;;;;;14.82;51.16;100496.09;4988348;27;96998;-71
2021/07/05 07:04:23;;;;;;;1999.90;999.90;;;;;;;14.83;50.75;100493.41;5006396;27;98085;-71
2021/07/05 07:06:52;;;;;;;1999.90;999.90;;;;;;;14.85;50.90;100491.63;5007131;27;97818;-70
2021/07/05 07:09:20;;;;;;;1999.90;999.90;;;;;;;14.87;50.85;100489.81;5015430;27;97729;-70
2021/07/05 07:11:48;;;;;;;1999.90;999.90;;;;;;;14.92;51.02;100495.16;5004539;27;96726;-70
2021/07/05 07:14:18;;;;;;;1999.90;999.90;;;;;;;14.94;50.76;100486.25;4992690;27;97000;-69
2021/07/05 07:16:52;;;;;;;1999.90;999.90;;;;;;;14.94;50.87;100491.59;5001764;27;99310;-70
2021/07/05 07:19:19;;;;;;;1999.90;999.90;;;;;;;14.98;50.90;100495.16;5009119;27;98804;-70
2021/07/05 07:21:48;;;;;;;1999.90;999.90;;;;;;;15.02;50.73;100494.28;5007213;27;97353;-69
2021/07/05 07:24:18;;;;;;;1999.90;999.90;;;;;;;15.09;50.37;100498.72;5004331;27;96944;-70
2021/07/05 07:26:47;;;;;;;1999.90;999.90;;;;;;;15.13;50.20;100492.47;5003674;27;99553;-70
2021/07/05 07:29:14;;;;;;;1999.90;999.90;;;;;;;15.16;50.55;100505.84;4994652;28;100390;-71
2021/07/05 07:31:42;;;;;;;1999.90;999.90;;;;;;;15.26;50.41;100506.72;5005543;27;97468;-71
2021/07/05 07:34:10;;;;;;;1999.90;999.90;;;;;;;15.34;49.86;100503.16;5004249;27;97942;-69
2021/07/05 07:36:39;;;;;;;1999.90;999.90;;;;;;;15.39;50.04;100503.16;5002553;27;97987;-70
2021/07/05 07:39:10;;;;;;;1999.90;999.90;;;;;;;15.47;49.73;100496.88;5032790;27;99503;-70
2021/07/05 07:41:39;;;;;;;1999.90;999.90;;;;;;;15.64;49.48;100491.44;5005715;27;97732;-70
2021/07/05 07:44:07;;;;;;;1999.90;999.90;;;;;;;15.61;49.59;100494.16;5006165;27;98093;-70
2021/07/05 07:46:35;;;;;;;1999.90;999.90;;;;;;;15.64;49.64;100499.50;5010257;27;100765;-70
2021/07/05 07:49:03;;;;;;;1999.90;999.90;;;;;;;15.73;49.56;100497.66;5009760;27;99015;-70
2021/07/05 07:51:31;;;;;;;1999.90;999.90;;;;;;;15.75;49.06;100485.13;5003512;27;97322;-69
2021/07/05 07:53:59;;;;;;;1999.90;999.90;;;;;;;15.79;49.36;100476.19;5012546;27;97530;-70
2021/07/05 07:56:29;;;;;;;1999.90;999.90;;;;;;;15.83;49.37;100483.28;5004576;27;100776;-70
2021/07/05 07:59:01;;;;;;;1999.90;999.90;;;;;;;15.88;49.02;100472.56;4991427;28;99550;-70
2021/07/05 08:01:29;;;;;;;1999.90;999.90;;;;;;;15.90;49.02;100476.97;5005575;27;97295;-70
2021/07/05 08:03:57;;;;;;;1999.90;999.90;;;;;;;15.98;48.56;100467.13;5006386;27;97965;-70
2021/07/05 08:06:25;;;;;;;1999.90;999.90;;;;;;;16.04;48.59;100464.44;4995951;27;99444;-69
2021/07/05 08:08:55;;;;;;;1999.90;999.90;;;;;;;16.09;48.63;100459.91;5014353;27;97693;-70
2021/07/05 08:11:24;;;;;;;1999.90;999.90;;;;;;;16.21;48.12;100458.06;5001905;27;97806;-70
2021/07/05 08:13:52;;;;;;;1999.90;999.90;;;;;;;16.33;48.05;100457.97;4988317;27;98165;-70
2021/07/05 08:16:21;;;;;;;1999.90;999.90;;;;;;;16.41;47.95;100456.13;5014680;27;99490;-70
2021/07/05 08:18:49;;;;;;;1999.90;999.90;;;;;;;16.51;48.20;100452.44;5006782;27;98162;-69
2021/07/05 08:21:17;;;;;;;1999.90;999.90;;;;;;;16.60;47.86;100452.34;5007115;27;97765;-70
2021/07/05 08:23:45;;;;;;;1999.90;999.90;;;;;;;16.66;47.52;100453.22;4992011;27;97965;-70
2021/07/05 08:26:14;;;;;;;1999.90;999.90;;;;;;;16.76;47.53;100454.06;5005247;27;99434;-70
2021/07/05 08:28:42;;;;;;;1999.90;999.90;;;;;;;16.79;47.54;100459.41;5004450;27;98782;-70
2021/07/05 08:31:09;;;;;;;1999.90;999.90;;;;;;;16.84;47.46;100453.06;4993882;27;97618;-70
2021/07/05 08:33:39;;;;;;;1999.90;999.90;;;;;;;16.85;47.66;100446.78;5012222;27;96865;-69
2021/07/05 08:36:07;;;;;;;1999.90;999.90;;;;;;;16.96;47.25;100442.19;5009243;27;99550;-69
2021/07/05 08:38:35;;;;;;;1999.90;999.90;;;;;;;17.00;47.22;100441.25;5006192;27;100743;-70
2021/07/05 08:41:03;;;;;;;1999.90;999.90;;;;;;;17.01;47.27;100436.78;5007088;27;97272;-69
2021/07/05 08:43:31;;;;;;;1999.90;999.90;;;;;;;17.07;47.22;100439.41;5008192;27;97877;-70
2021/07/05 08:46:01;;;;;;;1999.90;999.90;;;;;;;17.15;47.04;100428.53;4989177;27;99325;-68
2021/07/05 08:48:31;;;;;;;1999.90;999.90;;;;;;;17.18;47.00;100429.44;5010068;27;99492;-70
2021/07/05 08:51:01;;;;;;;1999.90;999.90;;;;;;;17.22;46.71;100428.47;5004266;27;97568;-70
2021/07/05 08:53:29;;;;;;;1999.90;999.90;;;;;;;17.30;46.54;100431.06;5007577;27;97842;-71
2021/07/05 08:55:56;;;;;;;1999.90;999.90;;;;;;;17.36;46.48;100431.91;4997642;27;99427;-71
2021/07/05 08:58:25;;;;;;;1999.90;999.90;;;;;;;17.44;46.31;100429.13;5005282;27;97306;-71
2021/07/05 09:00:53;;;;;;;1999.90;999.90;;;;;;;17.54;46.63;100430.78;5010085;27;97234;-71
2021/07/05 09:03:26;;;;;;;1999.90;999.90;;;;;;;17.60;46.26;100426.22;5009837;27;97102;-71
2021/07/05 09:06:09;;;;;;;1999.90;999.90;;;;;;;17.63;45.91;100419.91;5005737;27;97607;-71
2021/07/05 09:08:39;;;;;;;1999.90;999.90;;;;;;;17.66;46.13;100427.94;5017618;27;97938;-71
2021/07/05 09:11:08;;;;;;;1999.90;999.90;;;;;;;17.76;45.75;100427.81;5007450;27;97396;-71
2021/07/05 09:13:46;;;;;;;1999.90;999.90;;;;;;;17.79;45.46;100426.84;5004715;27;97038;-71
2021/07/05 09:16:28;;;;;;;1999.90;999.90;;;;;;;17.77;45.49;100429.56;5004165;27;100410;-71
2021/07/05 09:18:56;;;;;;;1999.90;999.90;;;;;;;17.77;45.66;100426.88;5003634;27;98558;-71
2021/07/05 09:21:27;;;;;;;1999.90;999.90;;;;;;;17.82;45.62;100432.22;5006529;27;97155;-71
2021/07/05 09:23:58;;;;;;;1999.90;999.90;;;;;;;17.84;45.51;100431.25;5002998;27;99035;-70
2021/07/05 09:26:29;;;;;;;1999.90;999.90;;;;;;;17.89;45.51;100424.00;5016452;27;99545;-71
2021/07/05 09:28:58;;;;;;;1999.90;999.90;;;;;;;17.93;45.19;100424.84;5003994;27;99186;-71
2021/07/05 09:31:32;;;;;;;1999.90;999.90;;;;;;;17.93;45.42;100420.34;5003553;27;97111;-71
2021/07/05 09:34:00;;;;;;;1999.90;999.90;;;;;;;17.97;45.41;100432.88;5006651;27;98016;-71
2021/07/05 09:36:30;;;;;;;1999.90;999.90;;;;;;;17.94;45.47;100427.53;5002307;27;98131;-71
2021/07/05 09:38:58;;;;;;;1999.90;999.90;;;;;;;17.95;45.23;100423.94;5004231;27;98009;-71
2021/07/05 09:41:27;;;;;;;1999.90;999.90;;;;;;;17.99;45.36;100422.97;4999627;28;97556;-71
2021/07/05 09:43:57;;;;;;;1999.90;999.90;;;;;;;17.97;45.08;100422.09;5004463;28;97894;-70
2021/07/05 09:46:42;;;;;;;1999.90;999.90;;;;;;;17.99;44.50;100420.28;4986662;28;100575;-70
2021/07/05 09:49:12;;;;;;;1999.90;999.90;;;;;;;18.03;45.10;100415.75;4990586;27;98425;-71
2021/07/05 09:51:42;;;;;;;1999.90;999.90;;;;;;;18.11;44.89;100419.25;5006730;27;97387;-71
2021/07/05 09:54:11;;;;;;;1999.90;999.90;;;;;;;18.17;44.77;100423.66;5012693;27;97033;-71
2021/07/05 09:56:38;;;;;;;1999.90;999.90;;;;;;;18.22;44.69;100422.66;5012357;27;99430;-71
2021/07/05 09:59:17;;;;;;;1999.90;999.90;;;;;;;18.29;44.04;100428.84;4998583;27;98220;-71
2021/07/05 10:01:46;;;;;;;1999.90;999.90;;;;;;;18.34;44.27;100426.94;5004787;27;97253;-71
2021/07/05 10:04:21;;;;;;;1999.90;999.90;;;;;;;18.38;44.40;100423.28;5016369;27;97759;-71
2021/07/05 10:06:51;;;;;;;1999.90;999.90;;;;;;;18.42;44.47;100419.63;5005273;27;100333;-71
2021/07/05 10:09:21;;;;;;;1999.90;999.90;;;;;;;18.46;43.83;100416.84;5007647;27;97904;-70
2021/07/05 10:11:49;;;;;;;1999.90;999.90;;;;;;;18.51;44.04;100419.47;5005437;27;97762;-71
2021/07/05 10:14:21;;;;;;;1999.90;999.90;;;;;;;18.57;43.75;100430.16;4988302;28;97167;-71
2021/07/05 10:16:51;;;;;;;1999.90;999.90;;;;;;;18.61;43.38;100429.16;5003842;27;97653;-71
2021/07/05 10:19:19;;;;;;;1187.82;883.60;;;;;;;18.64;43.53;100427.31;5004659;27;97697;-72
2021/07/05 10:21:46;;;;;;;1999.90;999.90;;;;;;;18.65;43.44;100429.09;5014141;27;97021;-71
2021/07/05 10:24:16;;;;;;;1188.10;885.00;;;;;;;18.67;43.29;100421.88;5008151;27;97848;-70
2021/07/05 10:26:45;;;;;;;930.47;859.22;;;;;;;18.67;42.86;100429.97;5012632;27;99440;-71
2021/07/05 10:29:12;;;;;;;843.70;784.75;;;;;;;18.62;42.83;100428.28;5008448;27;99341;-72
2021/07/05 10:31:41;;;;;;;869.85;804.88;;;;;;;18.59;42.83;100433.69;5005399;27;97629;-70
2021/07/05 10:34:09;;;;;;;1206.95;900.30;;;;;;;18.60;42.85;100430.09;5003744;27;97534;-72
2021/07/05 10:36:39;;;;;;;1183.88;880.50;;;;;;;18.61;42.84;100440.84;5004976;27;98754;-72
2021/07/05 10:39:09;;;;;;;1172.57;872.05;;;;;;;18.62;42.55;100428.28;5017302;27;97876;-71
2021/07/05 10:41:41;;;;;;;912.60;843.58;;;;;;;18.64;42.67;100439.91;5017174;27;97317;-71
2021/07/05 10:44:10;;;;;;;830.97;771.55;;;;;;;18.63;42.42;100438.13;5010258;27;96947;-72
2021/07/05 10:46:44;;;;;;;829.78;771.88;;;;;;;18.55;42.40;100429.31;5006310;27;98563;-72
2021/07/05 10:49:53;;;;;;;887.90;822.55;;;;;;;18.48;41.76;100430.28;5008101;27;97697;-70
2021/07/05 10:52:21;;;;;;;809.38;754.88;;;;;;;18.45;42.60;100433.94;5005055;27;96962;-70
2021/07/05 10:54:50;;;;;;;823.60;766.15;;;;;;;18.46;42.41;100434.84;5006769;27;97338;-70